createdAt,value
2017-08-30T00:00:22.828Z,19.07
2017-08-30T00:02:50.951Z,11.63
2017-08-30T00:05:19.048Z,11.37
2017-08-30T00:07:47.136Z,13.13
2017-08-30T00:10:15.414Z,17.07
2017-08-30T00:12:43.541Z,12.40
2017-08-30T00:15:11.777Z,11.80
2017-08-30T00:17:40.236Z,11.40
2017-08-30T00:20:08.626Z,21.20
2017-08-30T00:22:37.072Z,13.53
2017-08-30T00:25:22.676Z,14.10
2017-08-30T00:27:50.781Z,9.97
2017-08-30T00:30:19.759Z,20.00
2017-08-30T00:32:48.579Z,19.37
2017-08-30T00:35:16.933Z,11.27
2017-08-30T00:37:45.074Z,17.67
2017-08-30T00:40:14.078Z,12.17
2017-08-30T00:42:42.450Z,12.47
2017-08-30T00:45:11.643Z,13.10
2017-08-30T00:47:39.737Z,12.10
2017-08-30T00:50:07.812Z,14.90
2017-08-30T00:52:37.087Z,13.70
2017-08-30T00:55:05.178Z,15.50
2017-08-30T00:57:33.500Z,15.83
2017-08-30T01:00:01.600Z,16.10
2017-08-30T01:02:29.745Z,12.27
2017-08-30T01:04:58.089Z,16.40
2017-08-30T01:07:26.314Z,14.93
2017-08-30T01:09:54.436Z,16.33
2017-08-30T01:12:22.608Z,19.47
2017-08-30T01:14:50.784Z,13.57
2017-08-30T01:17:19.972Z,12.53
2017-08-30T01:19:48.346Z,10.83
2017-08-30T01:22:16.682Z,12.63
2017-08-30T01:24:44.994Z,11.87
2017-08-30T01:27:13.797Z,14.87
2017-08-30T01:29:41.884Z,18.40
2017-08-30T01:32:09.960Z,15.07
2017-08-30T01:34:38.307Z,12.03
2017-08-30T01:37:06.836Z,14.87
2017-08-30T01:39:35.838Z,15.17
2017-08-30T01:42:04.173Z,18.47
2017-08-30T01:44:32.603Z,12.73
2017-08-30T01:47:01.874Z,16.43
2017-08-30T01:49:31.056Z,11.57
2017-08-30T01:51:59.178Z,13.17
2017-08-30T01:54:27.923Z,10.57
2017-08-30T01:56:56.255Z,12.03
2017-08-30T01:59:24.345Z,18.20
2017-08-30T02:01:52.741Z,20.30
2017-08-30T02:04:20.848Z,19.27
2017-08-30T02:06:49.231Z,11.03
2017-08-30T02:09:17.482Z,17.33
2017-08-30T02:11:46.670Z,14.20
2017-08-30T02:14:14.767Z,11.57
2017-08-30T02:16:42.852Z,14.73
2017-08-30T02:19:11.071Z,17.13
2017-08-30T02:21:39.277Z,18.47
2017-08-30T02:24:07.752Z,20.30
2017-08-30T02:26:36.090Z,12.73
2017-08-30T02:29:04.350Z,14.33
2017-08-30T02:31:32.443Z,19.83
2017-08-30T02:34:00.615Z,15.67
2017-08-30T02:36:28.735Z,15.60
2017-08-30T02:38:56.858Z,14.53
2017-08-30T02:41:25.871Z,14.80
2017-08-30T02:43:54.203Z,11.53
2017-08-30T02:46:22.438Z,20.00
2017-08-30T02:48:50.563Z,15.67
2017-08-30T02:51:18.887Z,24.93
2017-08-30T02:53:47.216Z,17.57
2017-08-30T02:56:15.454Z,12.97
2017-08-30T02:58:43.795Z,11.50
2017-08-30T03:01:11.903Z,15.93
2017-08-30T03:03:39.991Z,20.43
2017-08-30T03:06:09.023Z,14.93
2017-08-30T03:08:37.363Z,18.93
2017-08-30T03:11:05.443Z,19.20
2017-08-30T03:13:33.691Z,13.50
2017-08-30T03:16:01.799Z,16.37
2017-08-30T03:18:29.927Z,18.07
2017-08-30T03:20:58.024Z,14.97
2017-08-30T03:23:27.163Z,12.20
2017-08-30T03:25:56.106Z,12.70
2017-08-30T03:28:24.405Z,14.13
2017-08-30T03:30:52.499Z,14.60
2017-08-30T03:33:20.824Z,14.10
2017-08-30T03:35:49.166Z,13.90
2017-08-30T03:38:17.244Z,10.60
2017-08-30T03:40:45.575Z,15.97
2017-08-30T03:43:13.897Z,15.10
2017-08-30T03:45:42.004Z,17.90
2017-08-30T03:48:10.932Z,13.77
2017-08-30T03:50:39.208Z,13.47
2017-08-30T03:53:07.775Z,12.30
2017-08-30T03:55:35.916Z,14.73
2017-08-30T03:58:04.176Z,17.53
2017-08-30T04:00:32.427Z,21.67
2017-08-30T04:03:00.582Z,15.80
2017-08-30T04:05:28.939Z,14.73
2017-08-30T04:07:57.071Z,22.00
2017-08-30T04:10:25.212Z,18.80
2017-08-30T04:12:53.312Z,26.07
2017-08-30T04:15:21.650Z,18.17
2017-08-30T04:17:50.118Z,21.57
2017-08-30T04:20:19.211Z,16.43
2017-08-30T04:22:47.385Z,16.93
2017-08-30T04:25:15.499Z,18.23
2017-08-30T04:27:43.854Z,15.73
2017-08-30T04:30:11.955Z,18.43
2017-08-30T04:32:40.839Z,17.40
2017-08-30T04:35:08.987Z,16.67
2017-08-30T04:37:37.990Z,15.30
2017-08-30T04:40:06.413Z,19.87
2017-08-30T04:42:34.719Z,14.73
2017-08-30T04:45:02.834Z,19.77
2017-08-30T04:47:30.936Z,24.60
2017-08-30T04:49:59.280Z,18.90
2017-08-30T04:52:28.151Z,18.47
2017-08-30T04:54:56.478Z,21.23
2017-08-30T04:57:24.811Z,21.43
2017-08-30T04:59:53.863Z,18.20
2017-08-30T05:02:22.183Z,20.70
2017-08-30T05:04:50.283Z,23.60
2017-08-30T05:07:18.387Z,14.83
2017-08-30T05:09:46.564Z,14.43
2017-08-30T05:12:14.720Z,14.73
2017-08-30T05:14:43.047Z,14.47
2017-08-30T05:17:11.371Z,18.40
2017-08-30T05:19:39.477Z,16.57
2017-08-30T05:22:07.804Z,15.90
2017-08-30T05:24:36.713Z,13.10
2017-08-30T05:27:05.688Z,11.90
2017-08-30T05:29:34.039Z,14.40
2017-08-30T05:32:02.940Z,17.97
2017-08-30T05:34:31.907Z,20.83
2017-08-30T05:37:00.243Z,19.37
2017-08-30T05:39:28.364Z,16.43
2017-08-30T05:41:56.459Z,20.93
2017-08-30T05:44:25.633Z,16.50
2017-08-30T05:46:53.968Z,20.00
2017-08-30T05:49:22.899Z,15.67
2017-08-30T05:51:51.261Z,17.83
2017-08-30T05:54:19.363Z,28.87
2017-08-30T05:56:47.633Z,20.00
2017-08-30T05:59:16.063Z,19.03
2017-08-30T06:01:46.842Z,21.50
2017-08-30T06:04:15.206Z,16.60
2017-08-30T06:06:43.316Z,15.30
2017-08-30T06:09:11.528Z,18.23
2017-08-30T06:11:39.609Z,15.10
2017-08-30T06:14:07.964Z,17.23
2017-08-30T06:16:36.292Z,16.60
2017-08-30T06:19:05.404Z,14.80
2017-08-30T06:21:33.743Z,21.63
2017-08-30T06:24:02.108Z,16.63
2017-08-30T06:26:30.270Z,13.13
2017-08-30T06:28:58.612Z,16.27
2017-08-30T06:31:26.939Z,13.10
2017-08-30T06:33:56.092Z,13.90
2017-08-30T06:36:24.268Z,14.77
2017-08-30T06:38:52.625Z,10.50
2017-08-30T06:41:21.548Z,13.90
2017-08-30T06:43:49.939Z,12.20
2017-08-30T06:46:18.017Z,15.13
2017-08-30T06:48:46.365Z,12.90
2017-08-30T06:51:14.675Z,15.17
2017-08-30T06:53:42.863Z,12.40
2017-08-30T06:56:11.110Z,13.37
2017-08-30T06:58:39.439Z,13.20
2017-08-30T07:01:07.875Z,12.83
2017-08-30T07:03:35.958Z,12.60
2017-08-30T07:06:04.299Z,14.40
2017-08-30T07:08:32.408Z,16.50
2017-08-30T07:11:01.615Z,16.27
2017-08-30T07:13:29.696Z,15.97
2017-08-30T07:15:57.826Z,16.10
2017-08-30T07:18:26.888Z,14.60
2017-08-30T07:20:55.027Z,17.57
2017-08-30T07:23:23.252Z,12.50
2017-08-30T07:25:51.603Z,15.80
2017-08-30T07:28:20.009Z,13.00
2017-08-30T07:30:48.357Z,15.17
2017-08-30T07:33:16.719Z,16.77
2017-08-30T07:35:45.119Z,15.77
2017-08-30T07:38:14.183Z,16.47
2017-08-30T07:40:45.608Z,16.83
2017-08-30T07:43:13.700Z,15.30
2017-08-30T07:45:42.039Z,16.27
2017-08-30T07:48:10.128Z,16.70
2017-08-30T07:50:38.236Z,15.60
2017-08-30T07:53:06.347Z,16.67
2017-08-30T07:55:34.468Z,21.23
2017-08-30T07:58:02.839Z,12.37
2017-08-30T08:00:33.056Z,18.20
2017-08-30T08:03:01.157Z,22.17
2017-08-30T08:05:29.530Z,15.33
2017-08-30T08:07:57.834Z,21.33
2017-08-30T08:10:26.313Z,17.30
2017-08-30T08:12:54.589Z,17.03
2017-08-30T08:15:22.716Z,14.73
2017-08-30T08:17:52.858Z,14.13
2017-08-30T08:20:21.671Z,15.60
2017-08-30T08:22:50.435Z,17.60
2017-08-30T08:25:18.539Z,19.77
2017-08-30T08:27:46.671Z,14.93
2017-08-30T08:30:15.904Z,18.70
2017-08-30T08:32:44.023Z,18.20
2017-08-30T08:35:12.122Z,21.00
2017-08-30T08:37:40.307Z,17.77
2017-08-30T08:40:08.457Z,19.30
2017-08-30T08:42:37.608Z,16.43
2017-08-30T08:45:05.919Z,18.57
2017-08-30T08:47:34.235Z,21.60
2017-08-30T08:50:02.499Z,22.63
2017-08-30T08:52:30.748Z,22.23
2017-08-30T08:54:58.823Z,18.77
2017-08-30T08:57:27.909Z,20.07
2017-08-30T08:59:56.030Z,18.70
2017-08-30T09:02:24.393Z,19.87
2017-08-30T09:04:53.056Z,19.80
2017-08-30T09:07:21.408Z,21.23
2017-08-30T09:09:49.716Z,25.20
2017-08-30T09:12:18.103Z,16.70
2017-08-30T09:14:46.447Z,27.53
2017-08-30T09:17:14.799Z,21.43
2017-08-30T09:19:45.078Z,19.37
2017-08-30T09:22:13.198Z,22.77
2017-08-30T09:24:41.283Z,16.80
2017-08-30T09:27:09.391Z,27.30
2017-08-30T09:29:37.887Z,18.53
2017-08-30T09:32:05.980Z,20.00
2017-08-30T09:34:34.848Z,20.90
2017-08-30T09:37:03.788Z,22.20
2017-08-30T09:39:32.340Z,21.10
2017-08-30T09:42:00.470Z,27.00
2017-08-30T09:44:28.863Z,27.33
2017-08-30T09:46:57.145Z,21.67
2017-08-30T09:49:25.244Z,21.90
2017-08-30T09:51:53.320Z,20.10
2017-08-30T09:54:21.654Z,26.23
2017-08-30T09:56:49.746Z,25.70
2017-08-30T09:59:18.115Z,25.50
2017-08-30T10:01:46.644Z,20.60
2017-08-30T10:04:15.014Z,23.10
2017-08-30T10:06:43.340Z,21.30
2017-08-30T10:09:11.677Z,23.90
2017-08-30T10:11:39.764Z,22.17
2017-08-30T10:14:07.903Z,24.93
2017-08-30T10:16:36.003Z,24.37
2017-08-30T10:19:04.137Z,25.10
2017-08-30T10:21:32.240Z,29.17
2017-08-30T10:24:00.610Z,21.80
2017-08-30T10:26:28.697Z,26.27
2017-08-30T10:28:56.968Z,24.20
2017-08-30T10:31:27.208Z,23.10
2017-08-30T10:33:55.470Z,23.77
2017-08-30T10:36:23.623Z,27.23
2017-08-30T10:38:51.955Z,23.33
2017-08-30T10:41:20.290Z,24.00
2017-08-30T10:43:48.604Z,18.37
2017-08-30T10:46:16.741Z,21.00
2017-08-30T10:48:44.838Z,23.37
2017-08-30T10:51:13.152Z,17.60
2017-08-30T10:53:42.403Z,17.20
2017-08-30T10:56:11.419Z,20.07
2017-08-30T10:58:39.588Z,17.73
2017-08-30T11:01:07.688Z,19.20
2017-08-30T11:03:36.122Z,17.87
2017-08-30T11:06:04.456Z,21.93
2017-08-30T11:08:32.835Z,25.80
2017-08-30T11:11:01.240Z,19.93
2017-08-30T11:13:29.596Z,16.60
2017-08-30T11:15:57.687Z,17.70
2017-08-30T11:18:25.807Z,21.40
2017-08-30T11:20:54.164Z,15.17
2017-08-30T11:23:22.492Z,30.17
2017-08-30T11:25:50.567Z,26.70
2017-08-30T11:28:18.952Z,31.83
2017-08-30T11:30:47.291Z,23.67
2017-08-30T11:33:15.416Z,16.40
2017-08-30T11:35:44.671Z,18.40
2017-08-30T11:38:13.001Z,16.87
2017-08-30T11:40:41.124Z,20.80
2017-08-30T11:43:09.531Z,17.67
2017-08-30T11:45:38.355Z,16.40
2017-08-30T11:48:06.635Z,16.30
2017-08-30T11:50:34.766Z,18.77
2017-08-30T11:53:02.859Z,19.67
2017-08-30T11:55:31.860Z,17.77
2017-08-30T11:58:00.173Z,17.70
2017-08-30T12:00:28.633Z,21.13
2017-08-30T12:02:56.964Z,17.30
2017-08-30T12:05:25.308Z,18.10
2017-08-30T12:07:53.700Z,16.83
2017-08-30T12:10:21.785Z,18.67
2017-08-30T12:12:50.134Z,21.17
2017-08-30T12:15:19.173Z,19.30
2017-08-30T12:17:47.284Z,19.47
2017-08-30T12:20:15.582Z,20.40
2017-08-30T12:22:43.756Z,19.07
2017-08-30T12:25:12.156Z,18.30
2017-08-30T12:27:40.400Z,19.63
2017-08-30T12:30:08.528Z,25.60
2017-08-30T12:32:38.747Z,20.30
2017-08-30T12:35:06.961Z,19.73
2017-08-30T12:37:41.814Z,21.03
2017-08-30T12:40:10.044Z,22.00
2017-08-30T12:42:38.118Z,24.97
2017-08-30T12:45:06.217Z,19.60
2017-08-30T12:47:34.583Z,23.37
2017-08-30T12:50:02.896Z,27.63
2017-08-30T12:52:31.224Z,20.53
2017-08-30T12:54:59.414Z,17.60
2017-08-30T12:57:27.741Z,16.67
2017-08-30T12:59:56.080Z,23.70
2017-08-30T13:02:24.429Z,22.10
2017-08-30T13:04:53.546Z,23.17
2017-08-30T13:07:21.632Z,29.40
2017-08-30T13:09:49.968Z,17.90
2017-08-30T13:12:18.064Z,25.63
2017-08-30T13:14:46.395Z,19.40
2017-08-30T13:17:14.720Z,25.07
2017-08-30T13:19:42.876Z,21.67
2017-08-30T13:22:10.989Z,22.83
2017-08-30T13:24:39.097Z,23.23
2017-08-30T13:27:07.875Z,23.03
2017-08-30T13:29:36.232Z,24.10
2017-08-30T13:32:04.310Z,24.73
2017-08-30T13:34:32.535Z,27.20
2017-08-30T13:37:00.731Z,21.97
2017-08-30T13:39:29.055Z,23.57
2017-08-30T13:41:57.395Z,26.67
2017-08-30T13:44:25.543Z,22.10
2017-08-30T13:46:53.913Z,21.43
2017-08-30T13:49:22.254Z,28.57
2017-08-30T13:51:50.363Z,23.27
2017-08-30T13:54:18.486Z,23.43
2017-08-30T13:56:46.805Z,20.63
2017-08-30T13:59:15.811Z,27.23
2017-08-30T14:01:43.920Z,24.10
2017-08-30T14:04:12.304Z,26.33
2017-08-30T14:06:40.619Z,18.93
2017-08-30T14:09:08.924Z,16.87
2017-08-30T14:11:37.115Z,23.40
2017-08-30T14:14:05.219Z,25.20
2017-08-30T14:16:33.416Z,24.17
2017-08-30T14:19:01.508Z,28.97
2017-08-30T14:21:29.615Z,20.87
2017-08-30T14:23:57.735Z,24.17
2017-08-30T14:26:26.058Z,22.10
2017-08-30T14:28:54.157Z,24.60
2017-08-30T14:31:22.356Z,22.57
2017-08-30T14:33:50.451Z,23.50
2017-08-30T14:36:18.551Z,23.03
2017-08-30T14:38:46.641Z,20.50
2017-08-30T14:41:15.453Z,26.87
2017-08-30T14:43:44.464Z,26.73
2017-08-30T14:46:13.471Z,26.33
2017-08-30T14:48:41.731Z,20.43
2017-08-30T14:51:10.924Z,27.77
2017-08-30T14:53:40.002Z,17.73
2017-08-30T14:56:08.124Z,20.70
2017-08-30T14:58:37.484Z,25.07
2017-08-30T15:01:05.652Z,27.90
2017-08-30T15:03:33.936Z,20.73
2017-08-30T15:06:02.878Z,24.93
2017-08-30T15:08:30.992Z,21.43
2017-08-30T15:10:59.108Z,20.40
2017-08-30T15:13:27.439Z,23.43
2017-08-30T15:15:55.778Z,24.20
2017-08-30T15:18:24.143Z,32.20
2017-08-30T15:20:52.270Z,20.30
2017-08-30T15:23:20.447Z,23.63
2017-08-30T15:25:48.835Z,25.70
2017-08-30T15:28:17.935Z,32.37
2017-08-30T15:30:46.039Z,22.43
2017-08-30T15:33:14.439Z,31.50
2017-08-30T15:35:43.329Z,36.30
2017-08-30T15:38:11.471Z,29.33
2017-08-30T15:40:39.824Z,24.13
2017-08-30T15:43:07.910Z,30.07
2017-08-30T15:45:36.086Z,30.53
2017-08-30T15:48:04.205Z,24.83
2017-08-30T15:50:34.264Z,43.47
2017-08-30T15:53:07.234Z,23.70
2017-08-30T15:55:37.297Z,21.90
2017-08-30T15:58:05.416Z,24.53
2017-08-30T16:00:35.447Z,27.37
2017-08-30T16:03:04.472Z,23.57
2017-08-30T16:05:32.599Z,23.30
2017-08-30T16:08:00.722Z,29.33
2017-08-30T16:10:28.896Z,29.23
2017-08-30T16:12:56.990Z,41.00
2017-08-30T16:15:25.098Z,28.10
2017-08-30T16:17:53.192Z,22.80
2017-08-30T16:20:21.309Z,25.27
2017-08-30T16:22:49.411Z,30.47
2017-08-30T16:25:18.444Z,24.87
2017-08-30T16:27:46.569Z,30.87
2017-08-30T16:30:14.650Z,28.27
2017-08-30T16:32:42.801Z,27.20
2017-08-30T16:35:10.881Z,24.07
2017-08-30T16:37:39.940Z,25.70
2017-08-30T16:40:08.092Z,41.13
2017-08-30T16:42:36.191Z,25.70
2017-08-30T16:45:04.305Z,34.23
2017-08-30T16:47:32.392Z,46.50
2017-08-30T16:50:01.328Z,44.70
2017-08-30T16:52:36.780Z,38.67
2017-08-30T16:55:05.923Z,46.80
2017-08-30T16:57:34.095Z,37.50
2017-08-30T17:00:02.242Z,36.13
2017-08-30T17:02:30.455Z,35.63
2017-08-30T17:04:58.597Z,41.20
2017-08-30T17:07:26.712Z,42.17
2017-08-30T17:09:54.892Z,37.37
2017-08-30T17:12:22.985Z,39.50
2017-08-30T17:14:51.216Z,39.63
2017-08-30T17:17:20.284Z,39.87
2017-08-30T17:19:49.334Z,54.17
2017-08-30T17:22:18.404Z,53.43
2017-08-30T17:24:46.567Z,66.53
2017-08-30T17:27:16.645Z,45.33
2017-08-30T17:29:45.472Z,51.87
2017-08-30T17:32:14.703Z,48.13
2017-08-30T17:34:42.899Z,46.27
2017-08-30T17:37:11.406Z,55.13
2017-08-30T17:39:41.456Z,36.60
2017-08-30T17:42:10.615Z,49.93
2017-08-30T17:44:38.929Z,46.40
2017-08-30T17:47:07.324Z,46.27
2017-08-30T17:49:35.633Z,45.60
2017-08-30T17:52:03.996Z,47.67
2017-08-30T17:54:32.183Z,49.73
2017-08-30T17:57:00.304Z,45.13
2017-08-30T17:59:28.454Z,47.20
2017-08-30T18:01:58.595Z,51.40
2017-08-30T18:04:26.755Z,52.10
2017-08-30T18:06:55.677Z,45.73
2017-08-30T18:09:24.060Z,44.63
2017-08-30T18:11:52.195Z,43.87
2017-08-30T18:14:20.408Z,49.17
2017-08-30T18:16:48.918Z,43.57
2017-08-30T18:19:18.034Z,45.23
2017-08-30T18:21:46.467Z,49.40
2017-08-30T18:24:15.420Z,47.77
2017-08-30T18:26:43.881Z,55.17
2017-08-30T18:29:12.383Z,43.17
2017-08-30T18:31:41.711Z,44.00
2017-08-30T18:34:12.837Z,49.47
2017-08-30T18:36:41.047Z,53.53
2017-08-30T18:39:09.147Z,48.97
2017-08-30T18:41:38.021Z,51.93
2017-08-30T18:44:06.131Z,50.43
2017-08-30T18:46:34.935Z,44.60
2017-08-30T18:49:05.845Z,49.57
2017-08-30T18:51:34.041Z,53.90
2017-08-30T18:54:02.140Z,51.70
2017-08-30T18:56:30.249Z,37.60
2017-08-30T18:58:58.348Z,45.20
2017-08-30T19:01:27.540Z,41.23
2017-08-30T19:03:55.724Z,46.77
2017-08-30T19:06:23.828Z,43.83
2017-08-30T19:08:52.833Z,48.93
2017-08-30T19:11:20.941Z,46.00
2017-08-30T19:13:49.056Z,21.93
2017-08-30T19:16:17.160Z,20.30
2017-08-30T19:18:45.263Z,14.53
2017-08-30T19:21:14.265Z,9.33
2017-08-30T19:23:42.361Z,8.77
2017-08-30T19:26:10.476Z,5.90
2017-08-30T19:28:38.560Z,5.17
2017-08-30T19:31:06.683Z,5.30
2017-08-30T19:33:34.778Z,5.30
2017-08-30T19:36:02.873Z,4.33
2017-08-30T19:38:30.975Z,6.83
2017-08-30T19:40:59.102Z,23.23
2017-08-30T19:43:28.136Z,6.43
2017-08-30T19:45:56.219Z,4.70
2017-08-30T19:48:24.319Z,6.00
2017-08-30T19:50:52.415Z,5.47
2017-08-30T19:53:20.497Z,5.10
2017-08-30T19:55:48.595Z,6.83
2017-08-30T19:58:16.676Z,10.27
2017-08-30T20:00:44.781Z,5.10
2017-08-30T20:03:12.886Z,6.13
2017-08-30T20:05:40.983Z,6.43
2017-08-30T20:08:09.085Z,6.00
2017-08-30T20:10:39.720Z,4.97
2017-08-30T20:13:07.838Z,4.73
2017-08-30T20:15:35.928Z,5.10
2017-08-30T20:18:04.030Z,5.00
2017-08-30T20:20:32.131Z,5.90
2017-08-30T20:23:00.221Z,4.80
2017-08-30T20:25:28.311Z,12.43
2017-08-30T20:27:56.433Z,8.53
2017-08-30T20:30:24.550Z,11.60
2017-08-30T20:32:52.659Z,5.77
2017-08-30T20:35:21.655Z,9.60
2017-08-30T20:37:49.750Z,7.20
2017-08-30T20:40:17.911Z,5.87
2017-08-30T20:42:46.002Z,6.27
2017-08-30T20:45:14.123Z,7.50
2017-08-30T20:47:42.221Z,6.03
2017-08-30T20:50:10.323Z,7.27
2017-08-30T20:52:38.515Z,6.87
2017-08-30T20:55:06.740Z,6.67
2017-08-30T20:57:34.847Z,7.87
2017-08-30T21:00:02.963Z,8.27
2017-08-30T21:02:31.055Z,6.13
2017-08-30T21:05:00.095Z,11.50
2017-08-30T21:07:28.206Z,4.67
2017-08-30T21:09:56.518Z,7.50
2017-08-30T21:12:24.595Z,5.30
2017-08-30T21:14:52.766Z,6.80
2017-08-30T21:17:20.856Z,8.30
2017-08-30T21:19:49.983Z,7.90
2017-08-30T21:22:18.068Z,6.33
2017-08-30T21:24:46.144Z,5.80
2017-08-30T21:27:14.288Z,4.57
2017-08-30T21:29:42.460Z,6.23
2017-08-30T21:32:10.567Z,6.40
2017-08-30T21:34:38.684Z,5.70
2017-08-30T21:37:06.805Z,6.27
2017-08-30T21:39:34.944Z,6.87
2017-08-30T21:42:03.747Z,7.70
2017-08-30T21:44:32.266Z,6.40
2017-08-30T21:47:00.339Z,7.63
2017-08-30T21:49:28.437Z,5.97
2017-08-30T21:51:56.516Z,6.60
2017-08-30T21:54:25.495Z,8.23
2017-08-30T21:56:54.518Z,6.70
2017-08-30T21:59:22.622Z,7.27
2017-08-30T22:01:50.706Z,5.40
2017-08-30T22:04:18.777Z,5.43
2017-08-30T22:06:46.874Z,5.80
2017-08-30T22:09:14.951Z,8.63
2017-08-30T22:11:43.054Z,12.33
2017-08-30T22:14:12.090Z,7.87
2017-08-30T22:16:40.364Z,9.30
2017-08-30T22:19:08.703Z,11.07
2017-08-30T22:21:36.795Z,7.27
2017-08-30T22:24:04.870Z,6.67
2017-08-30T22:26:32.979Z,38.97
2017-08-30T22:29:01.353Z,5.73
2017-08-30T22:31:29.427Z,8.47
2017-08-30T22:33:57.626Z,7.20
2017-08-30T22:36:26.411Z,11.40
2017-08-30T22:38:55.432Z,14.87
2017-08-30T22:41:23.800Z,11.30
2017-08-30T22:43:51.883Z,15.10
2017-08-30T22:46:20.256Z,16.30
2017-08-30T22:48:48.611Z,19.70
2017-08-30T22:51:16.991Z,19.03
2017-08-30T22:53:45.318Z,25.40
2017-08-30T22:56:13.571Z,25.93
2017-08-30T22:58:41.741Z,31.17
2017-08-30T23:01:10.507Z,29.63
2017-08-30T23:03:38.863Z,32.50
2017-08-30T23:06:07.806Z,32.57
2017-08-30T23:08:35.923Z,32.40
2017-08-30T23:11:04.036Z,38.87
2017-08-30T23:13:33.292Z,36.90
2017-08-30T23:16:01.550Z,37.90
2017-08-30T23:18:29.888Z,36.60
2017-08-30T23:20:59.243Z,37.23
2017-08-30T23:23:27.337Z,38.40
2017-08-30T23:25:56.387Z,39.17
2017-08-30T23:28:24.678Z,42.13
2017-08-30T23:30:54.076Z,42.07
2017-08-30T23:33:22.176Z,42.70
2017-08-30T23:35:50.503Z,45.13
2017-08-30T23:38:18.848Z,46.17
2017-08-30T23:40:46.930Z,48.67
2017-08-30T23:43:15.071Z,54.87
2017-08-30T23:45:43.176Z,52.93
2017-08-30T23:48:11.519Z,55.90
2017-08-30T23:50:39.903Z,59.67
2017-08-30T23:53:08.108Z,55.10
2017-08-30T23:55:37.560Z,54.10
2017-08-30T23:58:05.677Z,57.77
